Time;durP1;ratioP1;P1;durP2;ratioP2;P2;SDS_P1;SDS_P2;PMS_P1;PMS_P2;Temp;Humidity;BMP_temperature;BMP_pressure;BME280_temperature;BME280_humidity;BME280_pressure;Samples;Min_cycle;Max_cycle;Signal;HPM_P1;HPM_P2
2022/06/14 00:01:37;;;;;;;5.40;3.67;;;14.20;99.90;;;;;;4933936;28;21121;-89
2022/06/14 00:04:02;;;;;;;5.23;4.40;;;14.20;99.90;;;;;;4936415;28;20233;-88
2022/06/14 00:06:31;;;;;;;4.67;4.20;;;14.30;99.90;;;;;;4933428;28;20253;-89
2022/06/14 00:08:57;;;;;;;4.53;4.13;;;14.30;99.90;;;;;;4938826;28;20193;-88
2022/06/14 00:11:27;;;;;;;5.70;3.60;;;14.30;99.90;;;;;;4931999;28;20533;-89
2022/06/14 00:13:54;;;;;;;5.43;4.07;;;14.30;99.90;;;;;;4948684;28;20440;-88
2022/06/14 00:16:23;;;;;;;4.43;4.03;;;14.20;99.90;;;;;;4940670;28;20850;-88
2022/06/14 00:18:49;;;;;;;6.00;4.07;;;14.20;99.90;;;;;;4926541;28;20460;-89
2022/06/14 00:21:15;;;;;;;5.87;4.40;;;14.20;99.90;;;;;;4950220;28;20441;-89
2022/06/14 00:23:41;;;;;;;6.47;3.97;;;14.00;99.90;;;;;;4959758;28;21769;-90
2022/06/14 00:26:11;;;;;;;5.53;4.00;;;14.00;99.90;;;;;;4937157;28;21062;-90
2022/06/14 00:28:39;;;;;;;5.90;4.57;;;14.00;99.90;;;;;;4941506;28;20211;-90
2022/06/14 00:31:12;;;;;;;4.50;4.10;;;14.10;99.90;;;;;;4944228;28;20469;-90
2022/06/14 00:33:37;;;;;;;5.70;4.80;;;14.10;99.90;;;;;;4938890;28;20446;-89
2022/06/14 00:36:06;;;;;;;5.30;4.80;;;14.10;99.90;;;;;;4941676;28;20437;-90
2022/06/14 00:38:35;;;;;;;7.23;4.83;;;14.10;99.90;;;;;;4941084;28;20226;-90
2022/06/14 00:41:02;;;;;;;5.20;4.00;;;14.10;99.90;;;;;;4943556;28;20441;-90
2022/06/14 00:43:30;;;;;;;5.13;4.63;;;14.00;99.90;;;;;;4938666;28;20481;-89
2022/06/14 00:46:36;;;;;;;5.80;4.33;;;14.00;99.90;;;;;;4935390;28;20446;-89
2022/06/14 00:49:33;;;;;;;8.20;5.00;;;14.00;99.90;;;;;;4937682;28;20588;-89
2022/06/14 00:52:16;;;;;;;5.10;4.70;;;13.90;99.90;;;;;;4926750;28;20437;-88
2022/06/14 00:54:47;;;;;;;6.80;4.77;;;13.80;99.90;;;;;;4939832;28;21030;-89
2022/06/14 00:57:23;;;;;;;5.10;4.70;;;13.70;99.90;;;;;;4941003;28;20452;-88
2022/06/14 00:59:57;;;;;;;6.00;4.20;;;13.70;99.90;;;;;;4944198;28;22151;-88
2022/06/14 01:02:31;;;;;;;7.00;5.00;;;13.60;99.90;;;;;;4940971;28;20537;-89
2022/06/14 01:05:01;;;;;;;4.73;4.33;;;13.40;99.90;;;;;;4933671;28;23993;-89
2022/06/14 01:07:35;;;;;;;4.60;4.17;;;13.20;99.90;;;;;;4952992;28;20477;-88
2022/06/14 01:10:02;;;;;;;4.50;4.10;;;13.30;99.90;;;;;;4938231;28;20449;-88
2022/06/14 01:12:38;;;;;;;4.57;4.20;;;13.30;99.90;;;;;;4959300;28;20449;-89
2022/06/14 01:15:16;;;;;;;4.50;4.10;;;13.40;99.90;;;;;;4950049;28;20525;-89
2022/06/14 01:17:51;;;;;;;6.47;4.63;;;13.40;99.90;;;;;;4940744;28;20449;-89
2022/06/14 01:20:20;;;;;;;5.10;4.33;;;13.30;99.90;;;;;;4937774;28;20547;-89
2022/06/14 01:22:47;;;;;;;8.00;4.83;;;13.20;99.90;;;;;;4955625;28;20563;-89
2022/06/14 01:25:13;;;;;;;4.60;4.20;;;13.00;99.90;;;;;;4933009;28;20449;-89
2022/06/14 01:27:40;;;;;;;6.47;4.50;;;12.90;99.90;;;;;;4942032;28;20899;-89
2022/06/14 01:30:12;;;;;;;5.03;4.53;;;13.00;99.90;;;;;;4954983;28;20446;-89
2022/06/14 01:32:45;;;;;;;5.20;4.70;;;12.90;99.90;;;;;;4946134;28;24111;-89
2022/06/14 01:35:16;;;;;;;5.13;4.40;;;12.90;99.90;;;;;;4954313;28;24639;-90
2022/06/14 01:37:44;;;;;;;5.60;4.47;;;12.90;99.90;;;;;;4938067;28;20500;-91
2022/06/14 01:40:10;;;;;;;7.57;4.40;;;12.90;99.90;;;;;;4934026;28;20967;-90
2022/06/14 01:43:24;;;;;;;4.53;4.13;;;13.00;99.90;;;;;;4935529;28;20449;-89
2022/06/14 01:46:05;;;;;;;6.43;4.40;;;12.80;99.90;;;;;;4922035;28;21336;-89
2022/06/14 01:48:56;;;;;;;4.63;4.17;;;12.70;99.90;;;;;;4952941;28;20827;-89
2022/06/14 01:51:53;;;;;;;4.67;3.90;;;12.80;99.90;;;;;;4937804;28;20949;-90
2022/06/14 01:54:41;;;;;;;5.80;3.90;;;12.70;99.90;;;;;;4936095;28;20464;-89
2022/06/14 01:57:13;;;;;;;5.27;4.80;;;12.80;99.90;;;;;;4934988;28;20546;-89
2022/06/14 01:59:54;;;;;;;4.30;4.00;;;12.80;99.90;;;;;;4941351;28;20449;-89
2022/06/14 02:02:33;;;;;;;4.20;3.53;;;12.80;99.90;;;;;;4935093;28;20955;-88
2022/06/14 02:05:19;;;;;;;4.57;4.13;;;12.70;99.90;;;;;;4938070;28;20468;-88
2022/06/14 02:07:49;;;;;;;4.27;3.97;;;12.70;99.90;;;;;;4952993;28;20488;-88
2022/06/14 02:10:23;;;;;;;4.30;3.90;;;12.60;99.90;;;;;;4948685;28;20461;-89
2022/06/14 02:13:03;;;;;;;5.23;4.70;;;12.60;99.90;;;;;;4951250;28;20461;-90
2022/06/14 02:15:39;;;;;;;6.20;3.80;;;12.60;99.90;;;;;;4945196;28;20445;-90
2022/06/14 02:18:20;;;;;;;5.73;3.90;;;12.50;99.90;;;;;;4943693;28;20833;-90
2022/06/14 02:21:12;;;;;;;7.50;4.57;;;12.40;99.90;;;;;;4937242;28;20448;-89
2022/06/14 02:23:42;;;;;;;6.20;4.10;;;12.50;99.90;;;;;;4948815;28;20482;-89
2022/06/14 02:26:32;;;;;;;4.50;4.10;;;12.50;99.90;;;;;;4932771;28;20540;-89
2022/06/14 02:29:04;;;;;;;4.50;4.10;;;12.50;99.90;;;;;;4942473;28;20445;-89
2022/06/14 02:31:54;;;;;;;9.87;3.97;;;12.50;99.90;;;;;;4957279;28;20980;-89
2022/06/14 02:34:30;;;;;;;5.60;4.10;;;12.50;99.90;;;;;;4936396;28;20456;-90
2022/06/14 02:37:09;;;;;;;5.73;3.80;;;12.40;99.90;;;;;;4929882;28;20480;-89
2022/06/14 02:39:38;;;;;;;6.23;4.23;;;12.40;99.90;;;;;;4936879;28;20441;-89
2022/06/14 02:42:19;;;;;;;5.47;4.13;;;12.20;99.90;;;;;;4950016;28;21107;-89
2022/06/14 02:45:11;;;;;;;6.67;4.57;;;12.00;99.90;;;;;;4932856;28;20461;-89
2022/06/14 02:48:03;;;;;;;5.17;4.70;;;11.90;99.90;;;;;;4947502;28;20516;-89
2022/06/14 02:50:41;;;;;;;5.37;4.50;;;11.90;99.90;;;;;;4952123;28;20893;-89
2022/06/14 02:53:29;;;;;;;4.67;4.27;;;12.10;99.90;;;;;;4939920;28;20865;-89
2022/06/14 02:56:17;;;;;;;5.50;4.90;;;12.20;99.90;;;;;;4933528;28;20897;-90
2022/06/14 02:59:14;;;;;;;4.90;4.50;;;12.10;99.90;;;;;;4928106;28;20557;-89
2022/06/14 03:01:57;;;;;;;5.47;4.97;;;12.10;99.90;;;;;;4939879;28;20481;-89
2022/06/14 03:04:26;;;;;;;6.00;4.53;;;12.20;99.90;;;;;;4935035;28;20449;-90
2022/06/14 03:07:11;;;;;;;4.70;4.27;;;12.20;99.90;;;;;;4949419;28;20869;-89
2022/06/14 03:09:40;;;;;;;5.50;4.70;;;12.00;99.90;;;;;;4953734;28;20455;-91
2022/06/14 03:12:13;;;;;;;4.37;3.97;;;11.80;99.90;;;;;;4939222;28;20857;-90
2022/06/14 03:14:53;;;;;;;5.97;4.67;;;12.00;99.90;;;;;;4933343;28;20449;-89
2022/06/14 03:17:25;;;;;;;5.57;3.80;;;12.00;99.90;;;;;;4938373;28;20631;-90
2022/06/14 03:19:56;;;;;;;7.93;5.30;;;12.00;99.90;;;;;;4938675;28;21129;-89
2022/06/14 03:22:39;;;;;;;5.40;4.90;;;12.00;99.90;;;;;;4956312;28;20450;-89
2022/06/14 03:25:15;;;;;;;6.67;5.33;;;12.00;99.90;;;;;;4934803;28;20980;-90
2022/06/14 03:27:53;;;;;;;6.27;4.93;;;12.10;99.90;;;;;;4939171;28;20472;-88
2022/06/14 03:30:21;;;;;;;5.80;5.30;;;12.10;99.90;;;;;;4936130;28;20646;-88
2022/06/14 03:33:11;;;;;;;6.27;5.00;;;12.00;99.90;;;;;;4952354;28;20561;-88
2022/06/14 03:35:41;;;;;;;9.83;6.10;;;11.90;99.90;;;;;;4936032;28;20450;-89
2022/06/14 03:38:24;;;;;;;5.73;5.23;;;11.90;99.90;;;;;;4939644;28;20485;-89
2022/06/14 03:40:51;;;;;;;6.53;4.90;;;11.90;99.90;;;;;;4951490;28;20446;-89
2022/06/14 03:43:17;;;;;;;7.30;5.00;;;12.00;99.90;;;;;;4954389;28;20517;-87
2022/06/14 03:46:26;;;;;;;8.30;4.80;;;11.90;99.90;;;;;;4929889;28;21768;-88
2022/06/14 03:48:56;;;;;;;6.27;5.67;;;11.90;99.90;;;;;;4932252;28;20479;-87
2022/06/14 03:51:37;;;;;;;5.60;5.00;;;11.90;99.90;;;;;;4934590;28;20454;-87
2022/06/14 03:54:24;;;;;;;5.47;4.87;;;11.90;99.90;;;;;;4935422;28;20446;-88
2022/06/14 03:57:11;;;;;;;7.00;4.97;;;11.90;99.90;;;;;;4929004;28;20854;-88
2022/06/14 03:59:44;;;;;;;5.90;5.40;;;11.90;99.90;;;;;;4935609;28;20484;-87
2022/06/14 04:02:54;;;;;;;7.90;5.33;;;11.90;99.90;;;;;;4949854;28;20855;-88
2022/06/14 04:05:25;;;;;;;8.07;5.40;;;11.80;99.90;;;;;;4934704;28;21014;-89
2022/06/14 04:08:07;;;;;;;8.10;6.13;;;11.70;99.90;;;;;;4954371;28;20454;-88
2022/06/14 04:10:39;;;;;;;9.43;5.60;;;11.70;99.90;;;;;;4938216;28;20851;-89
2022/06/14 04:13:40;;;;;;;5.90;5.40;;;11.80;99.90;;;;;;4954960;28;20460;-89
2022/06/14 04:16:26;;;;;;;5.67;5.07;;;11.90;99.90;;;;;;4946156;28;20457;-88
2022/06/14 04:19:06;;;;;;;8.00;5.23;;;11.90;99.90;;;;;;4955633;28;20472;-88
2022/06/14 04:21:55;;;;;;;7.20;5.77;;;11.90;99.90;;;;;;4937323;28;20430;-88
2022/06/14 04:24:36;;;;;;;6.30;5.43;;;11.80;99.90;;;;;;4928916;28;20500;-89
2022/06/14 04:27:12;;;;;;;6.40;5.50;;;11.90;99.90;;;;;;4940345;28;21276;-89
2022/06/14 04:29:58;;;;;;;7.33;4.60;;;11.90;99.90;;;;;;4936401;28;20555;-89
2022/06/14 04:32:39;;;;;;;7.00;4.63;;;12.10;99.90;;;;;;4926198;28;20464;-89
2022/06/14 04:35:34;;;;;;;5.60;5.10;;;12.10;99.90;;;;;;4931621;28;20458;-88
2022/06/14 04:38:04;;;;;;;5.67;5.07;;;12.20;99.90;;;;;;4937298;28;20481;-89
2022/06/14 04:40:56;;;;;;;7.43;5.60;;;12.30;99.90;;;;;;4930946;28;20536;-89
2022/06/14 04:43:29;;;;;;;11.30;6.37;;;12.30;99.90;;;;;;4943922;28;20512;-89
2022/06/14 04:46:07;;;;;;;6.20;5.70;;;12.40;99.90;;;;;;4935805;28;20521;-89
2022/06/14 04:49:05;;;;;;;6.17;5.17;;;12.50;99.90;;;;;;4936306;28;20695;-91
2022/06/14 04:51:47;;;;;;;5.73;5.23;;;12.50;99.90;;;;;;4932840;28;20533;-90
2022/06/14 04:54:57;;;;;;;6.80;5.80;;;12.50;99.90;;;;;;4947980;28;20486;-90
2022/06/14 04:57:58;;;;;;;6.27;4.70;;;12.60;99.90;;;;;;4924155;28;21094;-91
2022/06/14 05:00:39;;;;;;;5.33;4.80;;;12.70;99.90;;;;;;4925958;28;21609;-92
2022/06/14 05:03:38;;;;;;;7.33;6.27;;;12.80;99.90;;;;;;4935796;28;20433;-89
2022/06/14 05:06:22;;;;;;;6.73;5.47;;;12.90;99.90;;;;;;4934394;28;20974;-87
2022/06/14 05:09:00;;;;;;;7.57;6.30;;;13.00;99.90;;;;;;4939275;28;20900;-89
2022/06/14 05:11:56;;;;;;;8.00;5.17;;;13.10;99.90;;;;;;4941820;28;20495;-89
2022/06/14 05:14:45;;;;;;;6.80;5.40;;;13.20;99.90;;;;;;4938884;28;20437;-89
2022/06/14 05:17:22;;;;;;;6.30;5.70;;;13.30;99.90;;;;;;4941516;28;20938;-88
2022/06/14 05:20:10;;;;;;;6.60;5.90;;;13.40;99.90;;;;;;4937769;28;20548;-89
2022/06/14 05:22:58;;;;;;;7.73;6.10;;;13.40;99.90;;;;;;4933274;28;20528;-88
2022/06/14 05:25:30;;;;;;;6.10;5.33;;;13.60;99.90;;;;;;4933112;28;20521;-88
2022/06/14 05:28:02;;;;;;;7.67;6.40;;;13.70;99.90;;;;;;4936804;28;20503;-89
2022/06/14 05:31:03;;;;;;;7.90;6.10;;;13.80;99.90;;;;;;4949782;28;20640;-87
2022/06/14 05:33:47;;;;;;;6.50;5.77;;;13.90;99.90;;;;;;4929642;28;20458;-91
2022/06/14 05:36:41;;;;;;;6.43;5.90;;;14.00;99.90;;;;;;4946663;28;20541;-90
2022/06/14 05:39:10;;;;;;;9.17;8.10;;;14.10;99.90;;;;;;4934351;28;20569;-88
2022/06/14 05:41:50;;;;;;;8.07;6.70;;;14.20;99.90;;;;;;4939623;28;20445;-88
2022/06/14 05:44:43;;;;;;;7.60;6.30;;;14.40;99.90;;;;;;4958578;28;20781;-89
2022/06/14 05:47:14;;;;;;;85.87;77.33;;;14.30;99.90;;;;;;4955445;28;20461;-92
2022/06/14 05:49:48;;;;;;;7.40;6.70;;;14.40;99.90;;;;;;4960389;28;20858;-88
2022/06/14 05:52:16;;;;;;;9.90;5.93;;;14.60;99.90;;;;;;4924413;28;20942;-86
2022/06/14 05:55:14;;;;;;;8.87;6.13;;;14.70;99.90;;;;;;4938408;28;20651;-87
2022/06/14 05:57:56;;;;;;;7.07;6.47;;;14.70;99.90;;;;;;4941405;28;20500;-86
2022/06/14 06:00:25;;;;;;;7.70;6.47;;;14.80;99.90;;;;;;4937431;28;20441;-86
2022/06/14 06:03:11;;;;;;;7.27;6.57;;;14.90;99.90;;;;;;4934063;28;20446;-86
2022/06/14 06:05:47;;;;;;;7.37;6.63;;;14.80;99.90;;;;;;4953604;28;20845;-86
2022/06/14 06:08:32;;;;;;;6.80;6.20;;;14.90;99.90;;;;;;4927500;28;20885;-86
2022/06/14 06:11:08;;;;;;;7.40;5.90;;;15.00;99.90;;;;;;4943599;28;22257;-87
2022/06/14 06:13:45;;;;;;;6.43;5.53;;;15.00;99.90;;;;;;4926707;28;24000;-86
2022/06/14 06:16:24;;;;;;;5.83;5.33;;;15.20;99.90;;;;;;4936430;28;21547;-87
2022/06/14 06:18:57;;;;;;;6.27;5.47;;;15.30;99.90;;;;;;4944951;28;21436;-87
2022/06/14 06:21:33;;;;;;;8.60;6.70;;;15.30;99.90;;;;;;4940895;28;21063;-87
2022/06/14 06:24:16;;;;;;;9.17;6.40;;;15.40;99.90;;;;;;4930468;28;21046;-88
2022/06/14 06:26:45;;;;;;;6.57;5.90;;;15.10;99.90;;;;;;4926965;28;20751;-87
2022/06/14 06:29:25;;;;;;;6.40;5.80;;;15.30;99.90;;;;;;4928360;28;20508;-86
2022/06/14 06:31:50;;;;;;;6.70;5.83;;;15.40;99.90;;;;;;4928249;28;20799;-87
2022/06/14 06:34:17;;;;;;;6.53;5.80;;;15.50;99.90;;;;;;4927684;28;20461;-88
2022/06/14 06:37:12;;;;;;;7.20;5.93;;;15.70;99.90;;;;;;4930108;28;20273;-87
2022/06/14 06:39:48;;;;;;;5.80;5.13;;;15.90;99.90;;;;;;4919429;28;20491;-88
2022/06/14 06:42:27;;;;;;;7.30;5.50;;;15.90;99.90;;;;;;4921407;28;20449;-90
2022/06/14 06:45:08;;;;;;;5.73;5.23;;;15.90;99.90;;;;;;4936350;28;20453;-87
2022/06/14 06:47:39;;;;;;;6.03;5.10;;;16.10;99.90;;;;;;4927325;28;21025;-88
2022/06/14 06:50:09;;;;;;;5.47;4.90;;;16.30;99.90;;;;;;4932719;28;20457;-89
2022/06/14 06:52:56;;;;;;;6.50;4.70;;;16.40;99.90;;;;;;4938797;28;21054;-89
2022/06/14 06:55:41;;;;;;;5.90;5.40;;;16.50;99.90;;;;;;4915414;28;21560;-88
2022/06/14 06:58:26;;;;;;;6.03;5.00;;;16.60;99.90;;;;;;4942973;28;21086;-89
2022/06/14 07:00:57;;;;;;;5.57;4.73;;;16.60;99.90;;;;;;4933624;28;20438;-87
2022/06/14 07:03:26;;;;;;;7.13;4.77;;;16.70;99.90;;;;;;4932224;28;20450;-87
2022/06/14 07:05:56;;;;;;;7.40;4.97;;;16.60;99.90;;;;;;4952646;28;20434;-87
2022/06/14 07:08:44;;;;;;;7.13;5.77;;;16.70;99.90;;;;;;4936067;28;20950;-87
2022/06/14 07:11:29;;;;;;;6.37;5.27;;;16.90;99.90;;;;;;4952446;28;20438;-87
2022/06/14 07:14:17;;;;;;;5.43;4.87;;;17.20;99.90;;;;;;4928569;28;20441;-86
2022/06/14 07:17:03;;;;;;;5.30;4.80;;;17.20;99.90;;;;;;4935480;28;20493;-86
2022/06/14 07:19:47;;;;;;;5.70;4.60;;;17.40;99.90;;;;;;4934234;28;20514;-87
2022/06/14 07:22:48;;;;;;;5.33;4.57;;;17.60;99.90;;;;;;4951762;28;20449;-87
2022/06/14 07:25:22;;;;;;;5.20;4.70;;;17.90;99.90;;;;;;4940548;28;20452;-87
2022/06/14 07:28:12;;;;;;;6.40;5.47;;;18.00;99.90;;;;;;4964026;28;20815;-87
2022/06/14 07:30:47;;;;;;;6.57;5.30;;;17.80;99.90;;;;;;4946972;28;20437;-88
2022/06/14 07:33:15;;;;;;;6.80;5.73;;;17.90;99.90;;;;;;4949060;28;20856;-87
2022/06/14 07:36:06;;;;;;;5.93;5.40;;;18.10;99.90;;;;;;4931315;28;20759;-87
2022/06/14 07:38:45;;;;;;;6.27;5.30;;;18.30;99.90;;;;;;4942859;28;20489;-87
2022/06/14 07:41:33;;;;;;;7.97;6.47;;;18.40;99.90;;;;;;4939467;28;20583;-87
2022/06/14 07:44:08;;;;;;;7.10;6.40;;;18.30;99.90;;;;;;4934523;28;20551;-87
2022/06/14 07:46:48;;;;;;;8.77;5.93;;;18.50;98.80;;;;;;4954055;28;20463;-87
2022/06/14 07:49:23;;;;;;;7.23;6.57;;;18.50;98.50;;;;;;4949496;28;20446;-87
2022/06/14 07:52:14;;;;;;;7.13;5.53;;;18.60;98.00;;;;;;4933172;28;20452;-87
2022/06/14 07:54:48;;;;;;;7.93;5.60;;;18.60;99.10;;;;;;4941973;28;20453;-87
2022/06/14 07:57:38;;;;;;;7.33;6.63;;;18.90;99.30;;;;;;4932085;28;20520;-87
2022/06/14 08:03:23;;;;;;;11.67;6.80;;;19.10;99.90;;;;;;4935778;28;20893;-88
2022/06/14 08:05:51;;;;;;;7.90;6.50;;;19.20;98.30;;;;;;4922824;28;20454;-91
2022/06/14 08:08:25;;;;;;;7.67;6.20;;;19.10;99.40;;;;;;4933061;28;21026;-92
2022/06/14 08:10:56;;;;;;;7.43;6.30;;;19.20;98.70;;;;;;4944313;28;20816;-89
2022/06/14 08:13:27;;;;;;;13.10;6.17;;;19.00;98.90;;;;;;4928574;28;20878;-88
2022/06/14 08:15:57;;;;;;;10.73;6.60;;;19.20;98.80;;;;;;4948447;28;20451;-87
2022/06/14 08:18:31;;;;;;;7.40;6.70;;;19.40;99.90;;;;;;4938821;28;20489;-88
2022/06/14 08:21:03;;;;;;;7.30;5.40;;;19.60;99.50;;;;;;4938941;28;20445;-88
2022/06/14 08:23:52;;;;;;;5.90;5.10;;;19.60;98.20;;;;;;4936359;28;20818;-87
2022/06/14 08:26:22;;;;;;;6.63;5.40;;;19.70;98.10;;;;;;4951208;28;21050;-87
2022/06/14 08:29:03;;;;;;;7.90;5.13;;;19.80;99.20;;;;;;4943261;28;20474;-88
2022/06/14 08:31:40;;;;;;;5.77;5.20;;;19.90;99.70;;;;;;4936737;28;20445;-88
2022/06/14 08:34:18;;;;;;;6.57;5.97;;;20.10;98.70;;;;;;4938374;28;20569;-88
2022/06/14 08:36:57;;;;;;;5.43;4.90;;;20.00;97.30;;;;;;4940279;28;20480;-87
2022/06/14 08:39:41;;;;;;;6.27;4.37;;;20.20;97.50;;;;;;4950940;28;21201;-88
2022/06/14 08:42:14;;;;;;;8.03;5.10;;;20.30;96.00;;;;;;4939808;28;20446;-88
2022/06/14 08:44:57;;;;;;;5.57;4.70;;;20.40;95.20;;;;;;4939454;28;20477;-87
2022/06/14 08:47:47;;;;;;;4.47;4.07;;;20.60;98.40;;;;;;4942382;28;20437;-88
2022/06/14 08:50:31;;;;;;;5.20;4.70;;;20.80;96.50;;;;;;4957732;28;21026;-88
2022/06/14 08:53:43;;;;;;;7.70;4.20;;;20.60;95.60;;;;;;4956862;28;20449;-88
2022/06/14 08:56:26;;;;;;;5.20;4.77;;;20.70;96.70;;;;;;4949161;28;20955;-88
2022/06/14 08:59:20;;;;;;;7.07;5.40;;;20.90;96.50;;;;;;4951719;28;21054;-87
2022/06/14 09:02:13;;;;;;;9.33;5.27;;;21.10;95.70;;;;;;4953419;28;20441;-87
2022/06/14 09:05:10;;;;;;;5.20;4.17;;;21.00;96.40;;;;;;4942487;28;20445;-88
2022/06/14 09:07:54;;;;;;;11.20;4.67;;;21.30;95.00;;;;;;4956307;28;21739;-88
2022/06/14 09:10:44;;;;;;;4.63;4.17;;;21.40;94.50;;;;;;4960628;28;20554;-88
2022/06/14 09:13:37;;;;;;;5.03;4.40;;;21.60;91.60;;;;;;4963123;28;20955;-88
2022/06/14 09:16:43;;;;;;;5.00;4.50;;;21.80;93.30;;;;;;4958292;28;20543;-88
2022/06/14 09:19:32;;;;;;;4.60;3.00;;;21.80;92.80;;;;;;4958482;28;20547;-87
2022/06/14 09:22:17;;;;;;;3.67;3.37;;;21.70;89.00;;;;;;4955805;28;20481;-88
2022/06/14 09:25:04;;;;;;;4.60;3.17;;;21.80;90.70;;;;;;4941439;28;20527;-88
2022/06/14 09:28:11;;;;;;;5.83;3.67;;;22.00;90.20;;;;;;4952558;28;20461;-87
2022/06/14 09:31:02;;;;;;;3.83;2.97;;;22.10;90.40;;;;;;4937248;28;20449;-88
2022/06/14 09:33:59;;;;;;;4.60;3.57;;;22.30;90.60;;;;;;4948127;28;20450;-88
2022/06/14 09:36:39;;;;;;;4.87;3.30;;;22.50;91.30;;;;;;4954151;28;21312;-88
2022/06/14 09:39:19;;;;;;;7.10;3.80;;;22.60;89.20;;;;;;4941697;28;20457;-87
2022/06/14 09:42:16;;;;;;;4.30;3.53;;;22.70;90.80;;;;;;4938096;28;20496;-86
2022/06/14 09:44:47;;;;;;;4.53;3.40;;;22.60;89.50;;;;;;4942198;28;22401;-87
2022/06/14 09:47:28;;;;;;;5.53;3.53;;;22.70;89.40;;;;;;4941134;28;20648;-88
2022/06/14 09:50:30;;;;;;;4.10;3.60;;;22.70;89.40;;;;;;4918135;28;20548;-88
2022/06/14 09:52:59;;;;;;;4.50;3.87;;;22.50;89.40;;;;;;4938279;28;20546;-88
2022/06/14 09:55:52;;;;;;;3.97;3.57;;;22.70;87.70;;;;;;4931177;28;20516;-88
2022/06/14 09:58:33;;;;;;;5.00;3.80;;;22.90;85.90;;;;;;4946558;28;22079;-87
2022/06/14 10:01:14;;;;;;;3.23;3.03;;;23.10;87.50;;;;;;4937190;28;20469;-88
2022/06/14 10:03:51;;;;;;;4.40;3.73;;;23.00;84.20;;;;;;4928687;28;20458;-87
2022/06/14 10:06:38;;;;;;;5.53;4.03;;;22.70;84.30;;;;;;4923816;28;20449;-88
2022/06/14 10:09:25;;;;;;;5.30;2.83;;;22.90;90.70;;;;;;4932727;28;20528;-87
2022/06/14 10:12:19;;;;;;;3.63;2.80;;;23.00;83.10;;;;;;4925233;28;20438;-87
2022/06/14 10:15:06;;;;;;;7.77;3.90;;;23.10;81.20;;;;;;4957350;28;20508;-88
2022/06/14 10:17:56;;;;;;;3.47;3.17;;;23.20;87.30;;;;;;4936810;28;20485;-90
2022/06/14 10:20:37;;;;;;;4.33;3.53;;;23.50;84.40;;;;;;4947044;28;20454;-89
2022/06/14 10:23:43;;;;;;;4.53;3.10;;;23.60;83.00;;;;;;4914729;28;21109;-92
2022/06/14 10:29:49;;;;;;;3.80;3.17;;;23.90;73.80;;;;;;4927715;28;20531;-90
2022/06/14 10:32:36;;;;;;;3.50;3.20;;;24.00;83.10;;;;;;4935414;28;21503;-89
2022/06/14 10:35:18;;;;;;;5.03;3.40;;;23.80;76.20;;;;;;4941180;28;20441;-90
2022/06/14 10:37:56;;;;;;;3.90;3.07;;;23.80;76.40;;;;;;4945207;28;20588;-90
2022/06/14 10:40:27;;;;;;;3.60;3.30;;;24.20;71.50;;;;;;4935943;28;20433;-90
2022/06/14 10:43:08;;;;;;;3.50;3.00;;;24.50;69.20;;;;;;4951021;28;20450;-90
2022/06/14 10:45:41;;;;;;;3.67;2.97;;;24.40;70.00;;;;;;4925444;28;20474;-89
2022/06/14 10:48:51;;;;;;;4.37;3.43;;;24.20;70.00;;;;;;4936270;28;20508;-89
2022/06/14 10:51:45;;;;;;;6.73;3.40;;;24.00;68.90;;;;;;4926713;28;20458;-89
2022/06/14 10:54:29;;;;;;;6.43;4.70;;;23.90;69.50;;;;;;4936182;28;21033;-89
2022/06/14 10:57:37;;;;;;;3.50;3.20;;;24.20;81.30;;;;;;4931433;28;20497;-90
2022/06/14 11:00:08;;;;;;;4.30;3.90;;;24.70;75.10;;;;;;4944925;28;20452;-89
2022/06/14 11:03:01;;;;;;;3.50;3.13;;;25.20;77.60;;;;;;4948045;28;20457;-88
2022/06/14 11:05:54;;;;;;;5.60;3.87;;;25.60;78.50;;;;;;4933404;28;20462;-90
2022/06/14 11:08:35;;;;;;;5.80;4.23;;;25.20;79.70;;;;;;4948148;28;20457;-89
2022/06/14 11:11:13;;;;;;;5.00;3.73;;;25.00;72.50;;;;;;4923930;28;20881;-89
2022/06/14 11:14:09;;;;;;;4.73;4.33;;;24.90;74.50;;;;;;4946752;28;20536;-88
2022/06/14 11:17:02;;;;;;;5.07;3.90;;;24.90;75.10;;;;;;4945302;28;20445;-89
2022/06/14 11:19:38;;;;;;;3.77;3.30;;;24.70;70.40;;;;;;4931449;28;21213;-89
2022/06/14 11:22:36;;;;;;;4.13;3.70;;;24.90;74.10;;;;;;4942620;28;21041;-89
2022/06/14 11:25:24;;;;;;;3.83;3.53;;;25.20;76.40;;;;;;4930302;28;20450;-88
2022/06/14 11:28:04;;;;;;;5.20;3.90;;;25.20;74.00;;;;;;4951268;28;20445;-88
2022/06/14 11:30:42;;;;;;;4.97;4.50;;;25.10;79.80;;;;;;4959059;28;20441;-88
2022/06/14 11:33:29;;;;;;;4.53;3.30;;;25.10;68.60;;;;;;4938173;28;20555;-89
2022/06/14 11:36:18;;;;;;;3.90;3.60;;;24.90;69.50;;;;;;4946160;28;20603;-89
2022/06/14 11:38:55;;;;;;;6.23;4.03;;;25.10;68.10;;;;;;4949026;28;21008;-89
2022/06/14 11:41:25;;;;;;;4.63;4.20;;;25.20;69.40;;;;;;4934815;28;20528;-88
2022/06/14 11:44:15;;;;;;;4.53;4.00;;;25.40;77.20;;;;;;4925651;28;21275;-88
2022/06/14 11:47:10;;;;;;;4.23;3.67;;;25.40;75.70;;;;;;4930493;28;20547;-89
2022/06/14 11:49:50;;;;;;;4.13;3.67;;;25.60;78.50;;;;;;4928084;28;20488;-88
2022/06/14 11:52:32;;;;;;;4.17;3.33;;;25.60;70.40;;;;;;4929567;28;20441;-89
2022/06/14 11:55:15;;;;;;;4.70;4.10;;;26.10;71.60;;;;;;4938790;28;20468;-91
2022/06/14 11:58:10;;;;;;;4.57;3.67;;;26.20;71.60;;;;;;4942829;28;20465;-91
2022/06/14 12:01:07;;;;;;;5.30;4.17;;;26.20;76.30;;;;;;4941317;28;20473;-91
2022/06/14 12:03:51;;;;;;;6.50;3.90;;;26.00;71.60;;;;;;4939891;28;21153;-91
2022/06/14 12:06:36;;;;;;;4.20;3.73;;;26.30;68.00;;;;;;4949611;28;20457;-90
2022/06/14 12:09:08;;;;;;;3.70;3.40;;;26.40;71.80;;;;;;4936148;28;20454;-91
2022/06/14 12:11:47;;;;;;;4.37;3.97;;;26.10;71.70;;;;;;4950664;28;20858;-91
2022/06/14 12:14:50;;;;;;;3.80;3.50;;;26.10;81.70;;;;;;4942534;28;20476;-91
2022/06/14 12:17:36;;;;;;;4.40;4.00;;;26.30;68.80;;;;;;4945891;28;22264;-92
2022/06/14 12:20:05;;;;;;;6.10;4.07;;;26.50;74.30;;;;;;4933902;28;20983;-91
2022/06/14 12:22:56;;;;;;;4.00;3.63;;;26.50;75.00;;;;;;4950207;28;20457;-90
2022/06/14 12:28:32;;;;;;;4.90;4.13;;;26.70;71.10;;;;;;4935548;28;20456;-88
2022/06/14 12:31:19;;;;;;;3.63;3.43;;;26.90;72.70;;;;;;4936277;28;20488;-88
2022/06/14 12:33:50;;;;;;;3.87;3.47;;;27.00;67.80;;;;;;4935256;28;21136;-88
2022/06/14 12:36:34;;;;;;;3.87;3.57;;;26.90;70.80;;;;;;4934984;28;20445;-87
2022/06/14 12:39:07;;;;;;;4.30;3.33;;;27.00;69.10;;;;;;4941441;28;20461;-87
2022/06/14 12:41:41;;;;;;;4.30;3.60;;;27.10;70.80;;;;;;4935942;28;20499;-88
2022/06/14 12:44:36;;;;;;;4.50;3.83;;;27.10;72.40;;;;;;4968305;28;20828;-88
2022/06/14 12:47:03;;;;;;;4.40;4.00;;;26.60;70.70;;;;;;4949071;28;20445;-89
2022/06/14 12:49:35;;;;;;;3.63;3.33;;;26.90;75.90;;;;;;4937636;28;20441;-89
2022/06/14 12:52:10;;;;;;;6.23;3.40;;;26.70;73.30;;;;;;4934471;28;20890;-89
2022/06/14 12:54:59;;;;;;;4.67;3.97;;;27.00;69.90;;;;;;4940018;28;20441;-89
2022/06/14 12:57:39;;;;;;;4.47;4.03;;;27.00;72.80;;;;;;4937120;28;20532;-88
2022/06/14 13:00:14;;;;;;;4.87;3.97;;;27.00;71.30;;;;;;4936695;28;20447;-89
2022/06/14 13:02:46;;;;;;;3.80;3.50;;;26.90;68.00;;;;;;4935429;28;20495;-89
2022/06/14 13:05:19;;;;;;;6.17;3.80;;;27.00;67.10;;;;;;4948190;28;20449;-89
2022/06/14 13:08:09;;;;;;;5.27;3.87;;;27.20;68.10;;;;;;4929965;28;20974;-90
2022/06/14 13:10:48;;;;;;;4.87;3.70;;;27.50;64.60;;;;;;4933882;28;20492;-88
2022/06/14 13:13:38;;;;;;;4.57;4.00;;;27.80;66.30;;;;;;4938109;28;21672;-88
2022/06/14 13:16:19;;;;;;;5.37;3.60;;;27.50;68.50;;;;;;4941638;28;20797;-88
2022/06/14 13:18:59;;;;;;;4.53;3.87;;;27.60;67.70;;;;;;4964444;28;20844;-89
2022/06/14 13:21:31;;;;;;;4.00;3.60;;;27.90;68.70;;;;;;4937639;28;20652;-88
2022/06/14 13:24:21;;;;;;;6.00;4.03;;;28.30;62.30;;;;;;4936567;28;20919;-88
2022/06/14 13:27:12;;;;;;;5.60;3.97;;;28.70;65.20;;;;;;4945271;28;20485;-88
2022/06/14 13:29:46;;;;;;;5.27;3.20;;;28.20;64.80;;;;;;4950659;28;21044;-88
2022/06/14 13:32:35;;;;;;;3.77;3.43;;;27.90;67.90;;;;;;4969474;28;20503;-88
2022/06/14 13:35:20;;;;;;;4.17;3.87;;;28.10;65.80;;;;;;4937196;28;20434;-88
2022/06/14 13:37:53;;;;;;;5.37;3.97;;;28.00;67.80;;;;;;4955392;28;20491;-88
2022/06/14 13:40:28;;;;;;;5.20;3.60;;;28.50;62.80;;;;;;4945729;28;20441;-88
2022/06/14 13:42:53;;;;;;;4.83;3.60;;;28.60;66.10;;;;;;4952781;28;20445;-88
2022/06/14 13:45:50;;;;;;;4.10;3.80;;;28.60;67.60;;;;;;4937679;28;20793;-89
2022/06/14 13:48:25;;;;;;;3.50;3.30;;;28.20;67.60;;;;;;4943032;28;20233;-89
2022/06/14 13:50:56;;;;;;;4.57;3.40;;;29.00;62.90;;;;;;4939376;28;20892;-90
2022/06/14 13:53:30;;;;;;;3.90;3.47;;;30.00;58.50;;;;;;4953701;28;21136;-92
2022/06/14 13:56:12;;;;;;;3.47;3.17;;;29.70;59.30;;;;;;4936663;28;20446;-92
2022/06/14 13:59:06;;;;;;;3.90;3.60;;;32.50;58.40;;;;;;4930507;28;20952;-93
2022/06/14 14:02:13;;;;;;;3.47;3.27;;;33.60;53.80;;;;;;4951407;28;20485;-93
2022/06/14 14:04:39;;;;;;;3.30;3.03;;;36.40;49.00;;;;;;4924388;28;20484;-91
2022/06/14 14:07:36;;;;;;;3.50;3.27;;;37.90;46.30;;;;;;4951431;28;20567;-94